createdAt,value
2023-04-14T06:45:05.754Z,17.57
2023-04-14T06:47:35.339Z,16.86
2023-04-14T06:50:03.917Z,17.08
2023-04-14T06:52:31.759Z,18.82
2023-04-14T06:54:59.488Z,19.29
2023-04-14T06:57:27.328Z,18.97
2023-04-14T06:59:55.175Z,19.78
2023-04-14T07:02:23.131Z,18.39
2023-04-14T07:04:52.623Z,18.71
2023-04-14T07:07:20.451Z,19.03
2023-04-14T07:09:48.285Z,20.20
2023-04-14T07:12:16.406Z,21.38
2023-04-14T07:14:51.020Z,21.98
2023-04-14T07:17:19.873Z,21.97
2023-04-14T07:19:47.922Z,20.85
2023-04-14T07:22:17.604Z,22.72
2023-04-14T07:24:45.473Z,23.07
2023-04-14T07:27:15.681Z,23.08
2023-04-14T07:29:43.848Z,22.15
2023-04-14T07:32:12.107Z,24.05
2023-04-14T07:34:44.072Z,24.77
2023-04-14T07:37:12.176Z,24.35
2023-04-14T07:39:41.822Z,24.74
2023-04-14T07:42:14.478Z,24.43
2023-04-14T07:45:29.050Z,26.15
2023-04-14T07:48:10.345Z,26.50
2023-04-14T07:50:41.590Z,26.25
2023-04-14T07:53:09.630Z,25.14
2023-04-14T08:01:18.887Z,27.70
2023-04-14T08:03:48.841Z,27.49
2023-04-14T08:06:18.911Z,27.96
2023-04-14T08:15:50.348Z,29.25
2023-04-14T08:18:19.970Z,29.17
2023-04-14T08:20:47.913Z,28.28
2023-04-14T08:23:16.244Z,29.58
2023-04-14T08:25:45.455Z,29.68
2023-04-14T08:28:13.624Z,28.53
2023-04-14T08:30:41.716Z,29.49
2023-04-14T08:33:10.173Z,29.75
2023-04-14T08:35:42.469Z,30.80
2023-04-14T08:38:11.669Z,30.81
2023-04-14T08:40:41.178Z,30.96
2023-04-14T08:43:11.155Z,30.85
2023-04-14T08:45:41.397Z,31.83
2023-04-14T08:48:09.716Z,31.71
2023-04-14T08:50:43.243Z,31.53
2023-04-14T08:53:11.665Z,31.94
2023-04-14T08:55:42.196Z,32.58
2023-04-14T08:58:13.863Z,32.05
2023-04-14T09:00:42.234Z,33.24
2023-04-14T09:03:10.761Z,33.20
2023-04-14T09:05:40.873Z,33.16
2023-04-14T09:08:08.845Z,33.14
2023-04-14T09:10:37.220Z,34.92
2023-04-14T09:13:05.806Z,34.21
2023-04-14T09:15:33.833Z,35.02
2023-04-14T09:18:02.491Z,34.01
2023-04-14T09:20:38.878Z,34.13
2023-04-14T09:23:10.877Z,35.04
2023-04-14T09:25:40.007Z,33.75
2023-04-14T09:28:08.286Z,32.64
2023-04-14T09:30:36.448Z,31.33
2023-04-14T09:33:06.846Z,29.71
2023-04-14T09:35:44.529Z,29.45
2023-04-14T09:38:14.088Z,27.71
2023-04-14T09:40:43.668Z,28.21
2023-04-14T09:43:27.148Z,29.83
2023-04-14T09:45:55.493Z,30.33
2023-04-14T09:48:24.280Z,29.96
2023-04-14T09:51:01.835Z,32.24
2023-04-14T09:53:32.175Z,33.46
2023-04-14T09:56:02.774Z,32.39
2023-04-14T09:58:31.642Z,32.65
2023-04-14T10:01:00.681Z,31.86
2023-04-14T10:03:36.133Z,32.26
2023-04-14T10:06:06.695Z,32.55
2023-04-14T10:08:42.967Z,34.90
2023-04-14T10:11:15.903Z,35.60
2023-04-14T10:13:44.427Z,34.66
2023-04-14T10:16:12.514Z,33.57
2023-04-14T10:18:40.437Z,33.09
2023-04-14T10:21:09.321Z,34.69
2023-04-14T10:23:38.380Z,34.80
2023-04-14T10:26:08.866Z,35.49
2023-04-14T10:28:37.016Z,37.92
2023-04-14T10:31:06.336Z,38.75
2023-04-14T10:33:34.590Z,39.05
2023-04-14T10:36:02.966Z,39.09
2023-04-14T10:38:41.163Z,39.27
2023-04-14T10:41:11.312Z,38.29
2023-04-14T10:43:39.892Z,35.40
2023-04-14T10:46:08.204Z,35.10
2023-04-14T10:48:36.984Z,34.43
2023-04-14T10:51:05.798Z,34.87
2023-04-14T10:53:45.995Z,34.69
2023-04-14T10:56:15.198Z,37.35
2023-04-14T10:58:43.115Z,38.37
2023-04-14T11:01:27.007Z,39.95
2023-04-14T11:03:56.345Z,40.73
2023-04-14T11:06:50.611Z,39.10
2023-04-14T11:09:25.942Z,36.02
2023-04-14T11:11:56.502Z,32.53
2023-04-14T11:14:28.240Z,33.42
2023-04-14T11:17:04.282Z,35.62
2023-04-14T12:35:37.684Z,24.22
2023-04-14T12:38:10.722Z,24.58
2023-04-14T12:43:17.787Z,24.87
2023-04-14T12:45:46.269Z,24.35
2023-04-14T12:48:14.906Z,23.37
2023-04-14T12:50:44.254Z,21.57
2023-04-14T12:53:24.895Z,22.12
2023-04-14T12:56:05.689Z,22.48
2023-04-14T12:58:36.209Z,22.62
2023-04-14T13:01:04.508Z,21.99
2023-04-14T13:03:43.062Z,22.41
2023-04-14T13:06:13.508Z,22.89
2023-04-14T13:08:44.816Z,23.58
2023-04-14T13:11:13.044Z,21.41
2023-04-14T13:13:41.067Z,22.30
2023-04-14T13:16:12.646Z,22.73
2023-04-14T13:18:42.478Z,22.27
2023-04-14T13:21:12.601Z,23.40
2023-04-14T13:23:40.959Z,23.92
2023-04-14T13:26:08.939Z,23.98
2023-04-14T13:28:37.288Z,24.06
2023-04-14T13:31:05.219Z,23.29
2023-04-14T13:33:34.379Z,24.55
2023-04-14T13:36:02.821Z,24.27
2023-04-14T13:38:33.515Z,24.68
2023-04-14T13:41:01.508Z,23.92
2023-04-14T13:43:29.969Z,23.12
2023-04-14T13:45:58.673Z,23.50
2023-04-14T13:48:27.338Z,23.34
2023-04-14T13:50:55.987Z,24.52
2023-04-14T13:53:24.044Z,24.98
2023-04-14T13:55:53.675Z,23.88
2023-04-14T13:58:22.923Z,22.82
2023-04-14T14:00:51.476Z,21.94
2023-04-14T14:03:19.717Z,23.39
2023-04-14T14:05:47.918Z,24.03
2023-04-14T14:08:16.398Z,23.35
2023-04-14T14:10:44.521Z,21.94
2023-04-14T14:13:15.481Z,23.68
2023-04-14T14:15:44.552Z,22.16
2023-04-14T14:18:12.320Z,21.99
2023-04-14T14:20:40.296Z,22.04
2023-04-14T14:23:08.132Z,22.36
2023-04-14T14:25:36.123Z,23.30
2023-04-14T14:28:03.989Z,22.43
2023-04-14T14:30:33.594Z,22.56
2023-04-14T14:33:01.675Z,22.28
2023-04-14T14:35:30.293Z,23.05
2023-04-14T14:37:59.006Z,20.54
2023-04-14T14:40:27.634Z,22.26
2023-04-14T14:42:56.099Z,23.23
2023-04-14T14:45:26.270Z,22.64
2023-04-14T14:48:00.728Z,22.97
2023-04-14T14:50:28.744Z,22.92
2023-04-14T14:52:57.001Z,21.85
2023-04-14T14:55:25.228Z,23.09
2023-04-14T14:57:53.085Z,22.24
2023-04-14T15:00:21.458Z,23.11
2023-04-14T15:02:49.776Z,22.52
2023-04-14T15:05:20.643Z,21.92
2023-04-14T15:07:54.758Z,20.36
2023-04-14T15:10:22.813Z,20.58
2023-04-14T15:12:50.541Z,20.53
2023-04-14T15:15:20.063Z,21.46
2023-04-14T15:17:48.570Z,22.05
2023-04-14T15:20:17.452Z,19.61
2023-04-14T15:22:46.734Z,21.84
2023-04-14T15:25:14.739Z,21.20
2023-04-14T15:27:42.644Z,20.43
2023-04-14T15:30:11.090Z,21.82
2023-04-14T15:32:39.202Z,19.89
2023-04-14T15:35:07.912Z,20.69
2023-04-14T15:37:38.170Z,21.45
2023-04-14T15:40:09.750Z,21.76
2023-04-14T15:42:37.781Z,21.17
2023-04-14T15:45:06.716Z,21.18
2023-04-14T15:47:34.696Z,19.11
2023-04-14T15:50:09.820Z,21.09
2023-04-14T15:52:39.361Z,19.54
2023-04-14T15:55:10.148Z,19.87
2023-04-14T15:57:38.127Z,21.58
2023-04-14T16:00:08.176Z,19.32
2023-04-14T16:02:36.445Z,20.51
2023-04-14T16:05:05.296Z,20.69
2023-04-14T16:07:33.599Z,19.55
2023-04-14T16:10:02.386Z,19.36
2023-04-14T16:12:35.136Z,20.04
2023-04-14T16:15:04.359Z,18.21
2023-04-14T16:17:35.010Z,20.83
2023-04-14T16:20:03.767Z,19.69
2023-04-14T16:22:32.164Z,18.32
2023-04-14T16:25:00.332Z,19.03
2023-04-14T16:27:29.490Z,20.78
2023-04-14T16:50:19.343Z,18.37
2023-04-14T16:52:47.143Z,19.60
2023-04-14T16:55:35.716Z,20.42
2023-04-14T16:58:09.917Z,17.52
2023-04-14T17:01:17.355Z,18.60
2023-04-14T17:03:45.410Z,19.41
2023-04-14T17:06:14.743Z,19.78
2023-04-14T17:08:42.941Z,20.01
2023-04-14T17:11:13.254Z,19.06
2023-04-14T17:22:45.937Z,17.65
2023-04-14T17:34:40.881Z,19.82
2023-04-14T17:38:09.568Z,19.66
2023-04-14T18:08:05.293Z,16.16
2023-04-14T19:21:21.202Z,13.31
2023-04-14T20:19:09.868Z,14.99
2023-04-14T20:21:37.874Z,13.72
2023-04-14T20:24:06.334Z,13.95
2023-04-14T20:26:35.330Z,14.67
2023-04-14T20:29:05.433Z,15.03
2023-04-14T20:31:33.373Z,14.00
2023-04-14T20:34:04.062Z,14.61
2023-04-14T20:36:35.799Z,13.92
2023-04-14T20:39:04.860Z,14.23
2023-04-14T20:41:32.967Z,14.47
2023-04-14T20:44:00.835Z,14.52
2023-04-14T20:46:28.881Z,14.52
2023-04-14T20:48:57.053Z,14.24
2023-04-14T20:51:25.205Z,14.76
2023-04-14T20:53:55.259Z,13.81
2023-04-14T20:56:24.684Z,14.62
2023-04-14T20:58:52.931Z,14.48
2023-04-14T21:01:21.422Z,13.33
2023-04-14T21:03:49.527Z,13.02
2023-04-14T21:06:17.694Z,13.11
2023-04-14T21:08:45.557Z,13.42
2023-04-14T21:11:18.111Z,14.42
2023-04-14T21:15:11.367Z,14.40
2023-04-14T21:16:34.813Z,14.38
2023-04-14T21:19:03.910Z,14.13
2023-04-14T21:21:33.219Z,14.08
2023-04-14T21:24:01.579Z,13.99
2023-04-14T21:26:30.878Z,12.42
2023-04-14T21:28:59.045Z,13.85
2023-04-14T21:31:27.424Z,14.14
2023-04-14T21:33:56.804Z,14.11
2023-04-14T21:36:24.571Z,13.59
2023-04-14T21:38:53.151Z,14.03
2023-04-14T21:41:21.310Z,13.99
2023-04-14T21:43:51.784Z,12.87
2023-04-14T21:46:19.810Z,13.94
2023-04-14T21:48:58.363Z,12.70
2023-04-14T21:51:26.200Z,13.89
2023-04-14T21:53:53.923Z,13.18
2023-04-14T21:56:22.338Z,11.71
2023-04-14T21:58:52.023Z,13.08
2023-04-14T22:01:19.985Z,13.25
2023-04-14T22:03:48.156Z,13.09
2023-04-14T22:06:16.404Z,13.19
2023-04-14T22:08:44.250Z,13.71
2023-04-14T22:11:12.825Z,13.16
2023-04-14T22:13:53.325Z,12.11
2023-04-14T22:16:22.478Z,13.63
2023-04-14T22:18:50.396Z,13.60
2023-04-14T22:21:18.289Z,13.56
2023-04-14T22:23:47.465Z,12.94
2023-04-14T22:26:22.148Z,13.49
2023-04-14T22:28:51.674Z,12.72
2023-04-14T22:31:24.824Z,10.76
2023-04-14T22:33:53.660Z,11.45
2023-04-14T22:36:21.837Z,13.41
2023-04-14T22:38:50.860Z,12.10
2023-04-14T22:41:19.164Z,13.05
2023-04-14T22:43:47.353Z,11.64
2023-04-14T22:46:17.008Z,13.25
2023-04-14T22:48:46.697Z,13.07
2023-04-14T22:51:15.336Z,10.85
2023-04-14T22:53:43.409Z,11.92
2023-04-14T22:56:11.480Z,10.11
2023-04-14T22:58:39.913Z,12.52
2023-04-14T23:01:19.101Z,12.16
2023-04-14T23:03:52.708Z,11.52
2023-04-14T23:06:24.129Z,12.20
2023-04-14T23:08:52.312Z,10.74
2023-04-14T23:11:21.516Z,12.46
2023-04-14T23:13:50.179Z,12.84
2023-04-14T23:16:19.906Z,12.83
2023-04-14T23:18:52.148Z,12.78
2023-04-14T23:21:22.417Z,11.43
2023-04-14T23:23:50.406Z,11.19
2023-04-14T23:26:20.375Z,11.06
2023-04-14T23:28:48.670Z,12.30
2023-04-14T23:31:17.426Z,12.59
2023-04-14T23:33:48.624Z,12.14
2023-04-14T23:36:16.641Z,12.52
2023-04-14T23:38:46.064Z,11.32
2023-04-14T23:41:13.830Z,12.43
2023-04-14T23:43:43.095Z,12.41
2023-04-14T23:46:11.709Z,10.31
2023-04-14T23:48:39.726Z,11.22
2023-04-14T23:51:18.465Z,10.15
2023-04-14T23:53:49.632Z,10.18
2023-04-14T23:56:17.520Z,11.53
2023-04-14T23:58:45.549Z,11.58
